Time;durP1;ratioP1;P1;durP2;ratioP2;P2;SDS_P1;SDS_P2;PMS_P1;PMS_P2;Temp;Humidity;BMP_temperature;BMP_pressure;BME280_temperature;BME280_humidity;BME280_pressure;Samples;Min_cycle;Max_cycle;Signal;HPM_P1;HPM_P2
2023/10/29 00:01:34;;;;;;;6.45;3.62;;;;;;;10.42;65.21;99251.12;7684402;32;37411;-81
2023/10/29 00:05:50;;;;;;;8.27;4.15;;;;;;;10.45;65.46;99239.69;7684250;32;39977;-82
2023/10/29 00:10:07;;;;;;;9.68;3.50;;;;;;;10.67;64.68;99241.94;7670890;32;39804;-82
2023/10/29 00:14:24;;;;;;;6.68;3.28;;;;;;;10.75;64.25;99248.69;7684184;32;38716;-83
2023/10/29 00:18:41;;;;;;;5.57;3.60;;;;;;;10.58;64.94;99232.75;7684178;32;36852;-82
2023/10/29 00:22:57;;;;;;;8.50;4.10;;;;;;;10.64;64.79;99228.06;7670620;32;40160;-82
2023/10/29 00:27:14;;;;;;;6.57;3.53;;;;;;;10.71;64.71;99232.09;7684204;32;41319;-82
2023/10/29 00:31:31;;;;;;;9.18;3.72;;;;;;;10.49;65.60;99235.28;7683511;32;38642;-82
2023/10/29 00:35:47;;;;;;;8.20;3.87;;;;;;;10.68;65.05;99248.22;7683855;32;37736;-83
2023/10/29 00:40:04;;;;;;;8.02;3.80;;;;;;;10.97;64.00;99245.50;7683331;32;39583;-82
2023/10/29 00:44:21;;;;;;;7.60;3.83;;;;;;;10.65;65.12;99248.78;7683606;32;39841;-82
2023/10/29 00:48:38;;;;;;;6.20;3.87;;;;;;;10.63;65.53;99240.06;7676257;32;197122;-83
2023/10/29 00:52:54;;;;;;;10.50;3.95;;;;;;;10.58;66.20;99251.03;7682267;32;36907;-82
2023/10/29 00:57:11;;;;;;;6.55;3.33;;;;;;;10.62;66.06;99238.44;7683434;32;39320;-83
2023/10/29 01:01:28;;;;;;;8.52;3.70;;;;;;;10.69;65.85;99234.31;7683549;32;39487;-83
2023/10/29 01:05:48;;;;;;;5.75;3.45;;;;;;;10.77;65.31;99234.78;7686226;32;38628;-82
2023/10/29 01:10:06;;;;;;;7.05;3.53;;;;;;;10.79;65.24;99233.38;7686512;32;37762;-82
2023/10/29 01:14:23;;;;;;;7.15;3.17;;;;;;;10.82;64.87;99241.00;7685490;32;39424;-82
2023/10/29 01:18:40;;;;;;;7.90;4.07;;;;;;;10.90;64.11;99251.28;7686314;32;39892;-82
2023/10/29 01:22:56;;;;;;;6.07;3.47;;;;;;;10.97;63.57;99252.84;7685810;32;37663;-82
2023/10/29 01:27:13;;;;;;;11.02;4.55;;;;;;;10.83;63.71;99244.53;7685133;32;37208;-82
2023/10/29 01:31:29;;;;;;;21.10;9.48;;;;;;;10.44;65.93;99243.50;7686257;32;39376;-82
2023/10/29 01:35:46;;;;;;;10.73;6.32;;;;;;;10.31;67.83;99249.53;7686438;32;40211;-83
2023/10/29 01:40:03;;;;;;;14.43;6.62;;;;;;;10.56;66.91;99259.47;7684820;32;37513;-82
2023/10/29 01:44:20;;;;;;;15.18;6.05;;;;;;;10.55;66.90;99254.31;7686163;32;37165;-79
2023/10/29 01:48:36;;;;;;;10.90;6.00;;;;;;;10.70;69.22;99248.75;7686066;32;39177;-81
2023/10/29 01:52:54;;;;;;;11.80;5.65;;;;;;;10.26;68.91;99249.56;7686030;32;39965;-83
2023/10/29 01:57:10;;;;;;;14.43;6.40;;;;;;;10.55;67.74;99241.50;7685889;32;39173;-82
2023/10/29 02:01:27;;;;;;;17.35;7.37;;;;;;;10.68;67.13;99231.84;7684637;32;37778;-82
2023/10/29 02:05:43;;;;;;;11.75;6.15;;;;;;;10.26;68.62;99242.22;7685614;32;39431;-82
2023/10/29 02:10:00;;;;;;;16.60;6.05;;;;;;;10.28;68.52;99271.91;7685937;32;39896;-82
2023/10/29 02:14:16;;;;;;;14.27;5.95;;;;;;;10.66;67.03;99272.22;7685188;32;37659;-81
2023/10/29 02:18:33;;;;;;;10.00;5.25;;;;;;;10.60;66.96;99281.53;7680267;32;37949;-82
2023/10/29 02:22:49;;;;;;;19.90;10.07;;;;;;;10.65;66.79;99265.94;7685698;32;39426;-82
2023/10/29 02:27:06;;;;;;;22.23;9.63;;;;;;;10.69;67.52;99250.66;7685601;32;40804;-82
2023/10/29 02:31:22;;;;;;;55.40;10.70;;;;;;;10.71;68.42;99240.28;7685506;32;37714;-82
2023/10/29 02:35:38;;;;;;;28.58;9.70;;;;;;;10.63;69.13;99238.16;7685553;32;38077;-82
2023/10/29 02:39:55;;;;;;;36.40;9.48;;;;;;;10.75;69.53;99245.97;7684723;32;39520;-82
2023/10/29 02:44:12;;;;;;;26.40;9.43;;;;;;;10.62;70.54;99243.88;7685396;32;40007;-83
2023/10/29 02:48:28;;;;;;;32.20;9.95;;;;;;;10.75;70.10;99231.53;7685232;32;37677;-83
2023/10/29 02:52:45;;;;;;;18.25;8.13;;;;;;;10.76;69.88;99233.94;7671623;32;37328;-83
2023/10/29 02:57:02;;;;;;;17.10;7.43;;;;;;;10.45;70.43;99239.69;7685411;32;40014;-83
2023/10/29 03:01:19;;;;;;;88.55;10.48;;;;;;;10.74;69.73;99235.34;7685218;32;40854;-82
2023/10/29 03:05:35;;;;;;;103.22;10.23;;;;;;;10.51;70.22;99254.06;7684844;32;37987;-82
2023/10/29 03:10:11;;;;;;;204.20;15.07;;;;;;;10.60;70.27;99249.62;7684945;32;37182;-82
2023/10/29 03:14:27;;;;;;;223.68;15.32;;;;;;;10.70;69.86;99263.16;7684701;32;39425;-82
2023/10/29 03:18:46;;;;;;;147.25;13.50;;;;;;;10.54;70.59;99267.13;7684937;32;40753;-82
2023/10/29 03:23:02;;;;;;;39.22;10.95;;;;;;;10.91;69.73;99273.91;7684829;32;38312;-82
2023/10/29 03:27:18;;;;;;;29.60;14.02;;;;;;;10.94;70.16;99261.63;7683730;32;37531;-83
2023/10/29 03:31:37;;;;;;;48.63;12.85;;;;;;;11.02;70.27;99269.16;7684711;32;39426;-83
2023/10/29 03:35:53;;;;;;;29.05;11.75;;;;;;;11.01;70.76;99273.00;7684759;32;40057;-83
2023/10/29 03:40:10;;;;;;;284.87;19.55;;;;;;;11.11;70.47;99262.00;7671416;32;38949;-83
2023/10/29 03:44:26;;;;;;;393.98;22.45;;;;;;;10.80;71.62;99264.19;7684703;32;37849;-83
2023/10/29 03:48:45;;;;;;;211.43;17.05;;;;;;;10.99;70.78;99272.50;7684615;32;40067;-83
2023/10/29 03:53:01;;;;;;;96.63;14.40;;;;;;;11.08;70.54;99268.03;7684693;32;39293;-83
2023/10/29 03:57:17;;;;;;;21.08;10.48;;;;;;;11.23;70.11;99278.78;7684485;32;38038;-83
2023/10/29 04:01:34;;;;;;;19.15;10.00;;;;;;;11.43;69.41;99268.75;7684475;32;37264;-83
2023/10/29 04:05:50;;;;;;;20.10;9.63;;;;;;;11.40;69.46;99280.22;7684286;32;40595;-83
2023/10/29 04:10:07;;;;;;;20.90;9.88;;;;;;;11.37;69.39;99275.38;7671557;32;40870;-82
2023/10/29 04:14:23;;;;;;;27.90;10.20;;;;;;;11.10;70.69;99282.19;7684062;32;37969;-82
2023/10/29 04:18:40;;;;;;;20.80;9.55;;;;;;;11.21;70.09;99274.69;7684206;32;37440;-83
2023/10/29 04:22:57;;;;;;;36.42;10.70;;;;;;;11.36;69.59;99268.28;7684146;32;40181;-83
2023/10/29 04:27:13;;;;;;;48.22;10.80;;;;;;;11.18;69.91;99267.91;7684003;32;39933;-83
2023/10/29 04:31:30;;;;;;;43.90;10.68;;;;;;;11.26;69.68;99282.84;7683879;32;37914;-83
2023/10/29 04:35:46;;;;;;;31.08;10.48;;;;;;;11.39;69.47;99275.91;7683907;32;36937;-81
2023/10/29 04:40:04;;;;;;;37.00;11.02;;;;;;;11.55;68.68;99260.97;7682951;32;39952;-83
2023/10/29 04:44:20;;;;;;;56.53;10.82;;;;;;;11.28;69.96;99261.56;7683924;32;40645;-83
2023/10/29 04:48:37;;;;;;;48.15;10.70;;;;;;;11.34;69.46;99281.41;7683491;32;38610;-82
2023/10/29 04:52:54;;;;;;;68.30;12.55;;;;;;;11.14;70.28;99279.69;7683143;32;37241;-82
2023/10/29 04:57:10;;;;;;;40.30;11.35;;;;;;;11.14;70.69;99290.59;7683344;32;39058;-82
2023/10/29 05:01:26;;;;;;;24.50;10.45;;;;;;;10.58;73.17;99281.00;7683201;32;39721;-83
2023/10/29 05:05:43;;;;;;;34.92;10.50;;;;;;;11.02;71.35;99271.88;7682483;32;37886;-83
2023/10/29 05:09:59;;;;;;;35.58;10.13;;;;;;;11.16;70.81;99264.69;7683066;32;37509;-83
2023/10/29 05:14:16;;;;;;;80.10;12.07;;;;;;;11.38;70.10;99260.63;7682974;32;39339;-83
2023/10/29 05:18:32;;;;;;;16.92;9.27;;;;;;;11.36;69.96;99262.81;7683004;32;40788;-83
2023/10/29 05:22:49;;;;;;;44.25;10.93;;;;;;;11.39;71.08;99267.72;7682682;32;37963;-83
2023/10/29 05:27:05;;;;;;;162.95;15.18;;;;;;;11.29;71.07;99279.53;7682749;32;37323;-82
2023/10/29 05:31:21;;;;;;;39.75;11.20;;;;;;;11.46;70.46;99279.09;7682529;32;39376;-82
2023/10/29 05:35:38;;;;;;;32.50;10.88;;;;;;;11.54;70.07;99277.63;7682714;32;39902;-83
2023/10/29 05:39:55;;;;;;;76.40;12.07;;;;;;;11.45;70.35;99272.81;7682148;32;38578;-83
2023/10/29 05:44:13;;;;;;;304.15;20.12;;;;;;;11.38;70.65;99280.56;7681984;32;37428;-82
2023/10/29 05:48:30;;;;;;;30.70;11.35;;;;;;;11.56;70.12;99289.91;7682307;32;38683;-82
2023/10/29 05:52:48;;;;;;;288.42;20.37;;;;;;;11.58;70.11;99286.88;7686017;32;39733;-82
2023/10/29 05:57:05;;;;;;;399.90;24.10;;;;;;;11.44;70.81;99293.03;7685523;32;38577;-83
2023/10/29 06:01:21;;;;;;;24.83;11.52;;;;;;;11.71;70.01;99291.66;7685775;32;37366;-82
2023/10/29 06:05:37;;;;;;;21.62;10.38;;;;;;;11.49;70.87;99294.06;7685643;32;40181;-82
2023/10/29 06:09:54;;;;;;;19.77;9.82;;;;;;;11.79;70.39;99292.91;7686038;32;39894;-81
2023/10/29 06:14:11;;;;;;;20.55;10.75;;;;;;;11.84;70.46;99306.50;7685531;32;38594;-77
2023/10/29 06:18:28;;;;;;;16.98;9.57;;;;;;;11.63;72.40;99317.66;7685680;32;37077;-80
2023/10/29 06:22:45;;;;;;;16.98;10.10;;;;;;;12.06;71.86;99324.31;7685506;32;40095;-77
2023/10/29 06:27:02;;;;;;;17.25;9.65;;;;;;;12.17;70.91;99344.91;7685199;32;40126;-82
2023/10/29 06:31:19;;;;;;;29.95;10.15;;;;;;;12.12;70.72;99344.97;7685455;32;37926;-83
2023/10/29 06:35:35;;;;;;;30.55;9.95;;;;;;;11.84;70.78;99339.28;7685496;32;37295;-82
2023/10/29 06:39:52;;;;;;;20.73;9.77;;;;;;;11.62;70.97;99337.06;7685682;32;40159;-80
2023/10/29 06:44:08;;;;;;;26.77;10.77;;;;;;;11.84;70.77;99344.72;7685320;32;40584;-81
2023/10/29 06:48:24;;;;;;;19.73;9.52;;;;;;;11.93;70.56;99348.47;7685268;32;38231;-82
2023/10/29 06:52:41;;;;;;;24.67;10.30;;;;;;;12.01;70.56;99357.97;7684431;32;37111;-82
2023/10/29 06:56:57;;;;;;;27.65;9.95;;;;;;;11.50;72.24;99344.84;7684686;32;40144;-82
2023/10/29 07:01:15;;;;;;;18.87;9.52;;;;;;;11.75;71.38;99349.22;7684949;32;39943;-81
2023/10/29 07:05:31;;;;;;;16.77;10.05;;;;;;;11.82;71.25;99346.94;7684793;32;38607;-81
2023/10/29 07:09:48;;;;;;;22.90;10.00;;;;;;;11.93;71.20;99359.41;7684867;32;37335;-82
2023/10/29 07:14:04;;;;;;;19.92;9.90;;;;;;;11.76;72.15;99370.78;7685077;32;40318;-81
2023/10/29 07:18:24;;;;;;;18.87;10.10;;;;;;;11.83;72.17;99354.03;7684837;32;39953;-79
2023/10/29 07:22:40;;;;;;;20.52;9.85;;;;;;;12.10;71.10;99353.47;7684615;32;37727;-82
2023/10/29 07:26:57;;;;;;;29.60;10.15;;;;;;;12.08;71.54;99346.69;7684540;32;37927;-82
2023/10/29 07:31:14;;;;;;;23.35;10.13;;;;;;;11.44;74.17;99346.81;7684382;32;40166;-82
2023/10/29 07:35:33;;;;;;;19.58;10.38;;;;;;;11.83;72.94;99351.28;7684532;32;40870;-82
2023/10/29 07:39:50;;;;;;;25.12;11.45;;;;;;;11.74;73.10;99355.78;7684602;32;37952;-82
2023/10/29 07:44:06;;;;;;;20.40;10.57;;;;;;;11.79;73.43;99355.72;7684809;32;36892;-82
2023/10/29 07:48:24;;;;;;;19.58;10.35;;;;;;;12.15;72.26;99344.41;7683812;32;38363;-82
2023/10/29 07:52:40;;;;;;;21.27;10.50;;;;;;;12.31;71.75;99345.81;7684455;32;39693;-82
2023/10/29 07:56:56;;;;;;;18.80;10.10;;;;;;;12.27;71.58;99338.50;7683876;32;38510;-83
2023/10/29 08:01:15;;;;;;;21.37;9.77;;;;;;;12.20;71.89;99350.59;7678979;32;37170;-84
2023/10/29 08:05:35;;;;;;;22.37;10.35;;;;;;;12.08;72.24;99349.41;7683479;32;41176;-82
2023/10/29 08:09:52;;;;;;;20.08;8.55;;;;;;;12.20;71.82;99347.06;7673018;32;40593;-83
2023/10/29 08:14:09;;;;;;;18.65;9.52;;;;;;;12.32;71.53;99344.72;7679393;32;38654;-84
2023/10/29 08:18:25;;;;;;;17.92;8.52;;;;;;;12.50;70.45;99347.75;7684305;32;37074;-85
2023/10/29 08:22:41;;;;;;;22.00;9.27;;;;;;;12.33;71.55;99337.31;7683839;32;39660;-86
2023/10/29 08:27:01;;;;;;;17.80;8.60;;;;;;;12.26;71.61;99351.34;7670793;32;39973;-85
2023/10/29 08:31:17;;;;;;;17.87;9.10;;;;;;;12.90;70.02;99342.75;7683699;32;38600;-83
2023/10/29 08:35:33;;;;;;;17.00;9.23;;;;;;;12.86;69.56;99341.75;7683818;32;38082;-86
2023/10/29 08:39:50;;;;;;;17.12;9.30;;;;;;;13.02;69.08;99340.41;7683731;32;39323;-83
2023/10/29 08:44:06;;;;;;;15.65;8.93;;;;;;;13.02;70.16;99343.13;7668657;32;39767;-82
2023/10/29 08:48:23;;;;;;;15.85;8.40;;;;;;;12.93;70.34;99347.63;7659535;32;37977;-82
2023/10/29 08:52:39;;;;;;;15.05;7.60;;;;;;;13.18;69.26;99349.16;7683350;32;37223;-83
2023/10/29 08:56:56;;;;;;;15.60;8.40;;;;;;;13.44;68.85;99333.13;7682747;32;40139;-83
2023/10/29 09:01:12;;;;;;;17.87;8.48;;;;;;;13.80;68.15;99337.13;7682994;32;40567;-83
2023/10/29 09:05:29;;;;;;;15.40;8.02;;;;;;;14.26;67.44;99339.72;7682706;32;38703;-82
2023/10/29 09:09:45;;;;;;;13.30;8.50;;;;;;;14.64;66.18;99330.37;7629504;32;37214;-82
2023/10/29 09:14:01;;;;;;;15.30;8.75;;;;;;;15.19;65.62;99329.34;7629396;32;39459;-82
2023/10/29 09:18:18;;;;;;;14.70;9.25;;;;;;;15.37;62.12;99325.56;7629833;32;39918;-78
2023/10/29 09:22:36;;;;;;;11.88;6.87;;;;;;;15.51;61.99;99332.91;7629001;32;37881;-80
2023/10/29 09:26:53;;;;;;;17.67;9.80;;;;;;;15.79;61.40;99332.75;7633268;32;37857;-79
2023/10/29 09:31:16;;;;;;;21.85;8.98;;;;;;;16.26;59.90;99335.78;7644313;32;39495;-79
2023/10/29 09:35:32;;;;;;;14.50;8.25;;;;;;;15.88;60.40;99339.88;7633466;32;40790;-79
2023/10/29 09:44:44;;;;;;;16.95;9.80;;;;;;;15.99;59.34;99342.34;7835784;27;20097;-83
2023/10/29 09:49:01;;;;;;;16.42;9.13;;;;;;;15.73;60.39;99335.59;7716197;32;39210;-83
2023/10/29 09:53:18;;;;;;;14.10;8.43;;;;;;;16.40;58.37;99314.47;7739004;32;40768;-83
2023/10/29 09:57:36;;;;;;;15.52;8.07;;;;;;;16.82;57.52;99320.28;7721632;32;37885;-84
2023/10/29 10:01:52;;;;;;;13.98;7.57;;;;;;;17.33;56.45;99328.00;7726019;32;37415;-83
2023/10/29 10:06:16;;;;;;;17.87;7.70;;;;;;;17.52;54.99;99320.16;7713497;32;39880;-82
2023/10/29 10:10:38;;;;;;;18.40;6.80;;;;;;;17.72;55.35;99295.75;7738545;32;40004;-84
2023/10/29 10:15:03;;;;;;;13.38;6.85;;;;;;;18.07;54.09;99295.59;7718856;32;37699;-83
2023/10/29 10:19:19;;;;;;;12.13;6.82;;;;;;;18.02;54.09;99311.22;7687375;32;35825;-84
2023/10/29 10:23:47;;;;;;;13.50;6.00;;;;;;;18.81;52.52;99288.53;7711941;32;39008;-89
2023/10/29 10:28:05;;;;;;;10.38;5.37;;;;;;;19.26;51.93;99285.00;7703348;32;39680;-85
2023/10/29 10:32:24;;;;;;;11.38;5.97;;;;;;;19.54;49.74;99286.31;7715864;32;38611;-84
2023/10/29 10:36:42;;;;;;;11.18;6.15;;;;;;;19.55;50.11;99287.94;7731325;32;37127;-85
2023/10/29 10:40:59;;;;;;;13.05;6.65;;;;;;;19.96;48.97;99269.53;7730029;32;40086;-84
2023/10/29 10:45:20;;;;;;;9.32;5.30;;;;;;;20.02;48.78;99268.13;7711833;32;40519;-85
2023/10/29 10:49:36;;;;;;;11.18;5.85;;;;;;;20.22;48.24;99253.34;7681230;32;37953;-84
2023/10/29 10:53:53;;;;;;;12.48;5.40;;;;;;;20.29;48.58;99266.59;7699094;32;36089;-82
2023/10/29 10:58:16;;;;;;;9.75;5.05;;;;;;;19.95;48.91;99274.25;7711557;32;39052;-83
2023/10/29 11:02:37;;;;;;;10.02;5.12;;;;;;;20.31;48.85;99260.72;7698569;32;39696;-80
2023/10/29 11:06:55;;;;;;;8.38;4.87;;;;;;;20.60;47.96;99256.81;7711981;32;37646;-80
2023/10/29 11:11:11;;;;;;;9.68;4.87;;;;;;;20.50;47.67;99252.56;7711713;32;37033;-80
2023/10/29 11:15:28;;;;;;;10.70;4.80;;;;;;;20.63;47.35;99251.41;7723188;32;39873;-84
2023/10/29 11:19:45;;;;;;;9.30;5.20;;;;;;;20.77;47.64;99247.44;7738344;32;40762;-83
2023/10/29 11:24:22;;;;;;;8.52;4.35;;;;;;;21.03;46.82;99240.59;7721375;32;37574;-85
2023/10/29 11:28:42;;;;;;;11.12;4.70;;;;;;;21.81;46.24;99252.06;7712155;32;37523;-85
2023/10/29 11:33:14;;;;;;;11.45;4.50;;;;;;;22.31;44.46;99236.56;7717187;32;39346;-83
2023/10/29 11:37:37;;;;;;;8.57;4.15;;;;;;;22.96;43.02;99238.66;7691113;32;40956;-82
2023/10/29 11:41:56;;;;;;;9.75;3.60;;;;;;;23.18;42.02;99239.87;7684488;32;38485;-81
2023/10/29 11:46:16;;;;;;;9.85;3.55;;;;;;;23.38;42.36;99231.47;7670786;32;37538;-85
2023/10/29 11:50:52;;;;;;;8.93;3.75;;;;;;;23.67;40.95;99218.00;7700795;32;39501;-85
2023/10/29 11:55:11;;;;;;;6.78;3.80;;;;;;;24.10;40.64;99204.75;7709834;32;40546;-84
2023/10/29 11:59:27;;;;;;;11.48;3.92;;;;;;;24.13;41.34;99204.00;7709655;32;38647;-78
2023/10/29 12:03:50;;;;;;;9.35;3.55;;;;;;;24.73;40.00;99192.81;7710833;32;37957;-76
2023/10/29 12:08:07;;;;;;;9.75;3.37;;;;;;;25.08;38.74;99191.53;7709859;32;39384;-78
2023/10/29 12:12:27;;;;;;;7.90;3.47;;;;;;;25.11;38.94;99196.34;7710620;32;39939;-78
2023/10/29 12:16:46;;;;;;;8.50;3.08;;;;;;;25.29;38.27;99185.37;7710537;32;38774;-77
2023/10/29 12:21:06;;;;;;;5.93;3.08;;;;;;;25.74;38.15;99176.94;7710931;32;37111;-76
2023/10/29 12:25:23;;;;;;;6.37;2.80;;;;;;;25.71;37.45;99186.06;7710846;32;39350;-83
2023/10/29 12:29:40;;;;;;;5.53;2.78;;;;;;;25.70;35.81;99187.28;7696987;32;39569;-82
2023/10/29 12:34:00;;;;;;;6.32;2.03;;;;;;;26.15;35.93;99179.56;7710617;32;38627;-82
2023/10/29 12:38:18;;;;;;;3.97;1.80;;;;;;;26.30;34.68;99180.44;7710645;32;37156;-77
2023/10/29 12:42:52;;;;;;;6.25;1.37;;;;;;;25.85;33.88;99172.22;7710323;32;39078;-80
2023/10/29 12:47:16;;;;;;;5.15;1.00;;;;;;;23.92;36.70;99160.78;7710180;32;39940;-77
2023/10/29 12:51:41;;;;;;;5.95;1.10;;;;;;;23.11;37.17;99156.34;7696304;32;37963;-76
2023/10/29 12:55:59;;;;;;;3.58;1.02;;;;;;;22.86;38.10;99183.66;7709875;32;37361;-76
2023/10/29 13:00:16;;;;;;;2.62;0.98;;;;;;;22.31;39.34;99181.81;7711703;32;38783;-70
2023/10/29 13:04:36;;;;;;;2.17;1.05;;;;;;;21.92;39.90;99176.25;7723423;32;39614;-81
2023/10/29 13:08:52;;;;;;;2.12;0.82;;;;;;;21.94;40.30;99175.88;7739924;32;38099;-80
2023/10/29 13:13:09;;;;;;;12.02;1.10;;;;;;;21.34;41.20;99176.06;7733155;32;37876;-70
2023/10/29 13:17:25;;;;;;;2.53;1.10;;;;;;;21.86;41.03;99163.00;7712964;32;39397;-70
2023/10/29 13:21:41;;;;;;;2.53;0.95;;;;;;;21.87;41.18;99156.28;7692124;32;41576;-70
2023/10/29 13:25:57;;;;;;;4.43;1.50;;;;;;;22.11;40.64;99155.19;7701276;32;37945;-69
2023/10/29 13:30:14;;;;;;;2.50;1.12;;;;;;;22.63;40.86;99141.97;7726676;32;36983;-87
2023/10/29 13:34:30;;;;;;;1.90;0.80;;;;;;;22.39;39.47;99159.78;7719765;32;39404;-80
2023/10/29 13:38:47;;;;;;;3.35;1.20;;;;;;;22.42;39.75;99143.19;7712713;32;40759;-87
2023/10/29 13:43:03;;;;;;;2.80;0.80;;;;;;;22.15;40.00;99158.88;7712328;32;37962;-70
2023/10/29 13:47:19;;;;;;;5.15;1.08;;;;;;;22.46;39.75;99143.25;7714493;32;37264;-71
2023/10/29 13:51:36;;;;;;;2.65;0.82;;;;;;;21.99;39.78;99147.84;7712026;32;39873;-69
2023/10/29 13:55:53;;;;;;;4.55;1.05;;;;;;;22.32;39.68;99154.87;7711729;32;40780;-70
2023/10/29 14:00:10;;;;;;;3.67;0.82;;;;;;;22.38;39.59;99142.28;7712231;32;39114;-69
2023/10/29 14:04:26;;;;;;;1.65;0.70;;;;;;;22.45;39.90;99142.44;7712078;32;37295;-70
2023/10/29 14:08:43;;;;;;;5.37;0.88;;;;;;;22.55;39.44;99145.78;7711077;32;39452;-70
2023/10/29 14:12:59;;;;;;;2.92;0.90;;;;;;;22.20;40.08;99152.22;7707654;32;40885;-86
2023/10/29 14:17:16;;;;;;;3.12;0.88;;;;;;;22.09;40.20;99158.38;7714813;32;38774;-86
2023/10/29 14:21:33;;;;;;;1.40;0.93;;;;;;;22.36;39.96;99150.19;7739001;32;37344;-87
2023/10/29 14:25:50;;;;;;;2.53;0.98;;;;;;;22.75;38.51;99152.91;7717722;32;38369;-84
2023/10/29 14:30:08;;;;;;;5.93;1.00;;;;;;;23.97;36.76;99134.56;7711281;32;40080;-83
2023/10/29 14:34:24;;;;;;;5.03;1.15;;;;;;;24.88;34.39;99142.75;7711477;32;38111;-82
2023/10/29 14:38:40;;;;;;;3.05;0.80;;;;;;;23.69;36.77;99148.88;7696786;32;37052;-81
2023/10/29 14:42:57;;;;;;;2.60;1.02;;;;;;;22.52;39.49;99150.09;7710101;32;40070;-82
2023/10/29 14:47:33;;;;;;;4.95;1.12;;;;;;;21.90;40.86;99150.00;7710247;32;41062;-82
2023/10/29 14:51:50;;;;;;;2.03;0.90;;;;;;;21.79;41.56;99146.22;7713974;32;37939;-82
2023/10/29 14:56:07;;;;;;;3.70;1.00;;;;;;;20.61;43.45;99154.00;7702058;32;37079;-83
2023/10/29 15:00:23;;;;;;;4.50;1.10;;;;;;;20.80;43.38;99169.16;7710192;32;40005;-84
2023/10/29 15:04:39;;;;;;;4.45;0.80;;;;;;;20.75;43.77;99169.44;7712026;32;40914;-86
2023/10/29 15:08:55;;;;;;;4.53;1.10;;;;;;;20.36;44.47;99166.34;7732098;32;38389;-83
2023/10/29 15:13:12;;;;;;;4.45;1.20;;;;;;;20.30;44.63;99162.22;7730688;32;37614;-83
2023/10/29 15:17:28;;;;;;;2.45;1.23;;;;;;;19.88;45.38;99155.09;7710669;32;39637;-84
2023/10/29 15:21:44;;;;;;;3.87;1.20;;;;;;;19.72;46.16;99152.22;7710340;32;40028;-83
2023/10/29 15:26:02;;;;;;;3.35;1.23;;;;;;;19.61;46.53;99140.03;7709175;32;37853;-83
2023/10/29 15:30:18;;;;;;;1.52;0.93;;;;;;;19.69;46.41;99158.44;7710876;32;36752;-84
2023/10/29 15:34:35;;;;;;;4.57;1.12;;;;;;;19.77;46.04;99148.47;7710869;32;39419;-85
2023/10/29 15:38:51;;;;;;;2.12;1.10;;;;;;;19.92;45.82;99149.66;7711533;32;39637;-83
2023/10/29 15:43:07;;;;;;;3.53;1.20;;;;;;;19.95;45.93;99157.28;7713011;32;37819;-84
2023/10/29 15:47:25;;;;;;;2.25;1.35;;;;;;;19.71;46.02;99153.38;7713678;32;37753;-85
2023/10/29 15:51:42;;;;;;;4.57;1.25;;;;;;;19.81;46.21;99154.87;7695054;32;40195;-84
2023/10/29 15:56:05;;;;;;;2.05;1.30;;;;;;;20.04;45.19;99157.94;7711660;32;39542;-85
2023/10/29 16:00:23;;;;;;;3.78;1.52;;;;;;;19.83;45.87;99153.41;7709839;32;37948;-84
2023/10/29 16:04:39;;;;;;;3.50;1.50;;;;;;;20.06;45.22;99163.94;7711808;32;35270;-85
2023/10/29 16:08:56;;;;;;;2.62;1.27;;;;;;;20.00;45.51;99165.31;7711191;32;39984;-82
2023/10/29 16:13:12;;;;;;;1.67;1.05;;;;;;;19.60;46.56;99163.31;7711456;32;40018;-84
2023/10/29 16:17:29;;;;;;;2.05;1.40;;;;;;;19.83;46.01;99169.16;7716363;32;38070;-85
2023/10/29 16:21:45;;;;;;;3.97;1.40;;;;;;;19.51;46.40;99163.44;7710109;32;37143;-85
2023/10/29 16:26:02;;;;;;;3.30;1.40;;;;;;;19.85;46.03;99162.16;7708394;32;39003;-83
2023/10/29 16:30:22;;;;;;;2.15;1.05;;;;;;;19.80;46.33;99170.69;7696203;32;40785;-83
2023/10/29 16:34:40;;;;;;;2.08;1.02;;;;;;;19.79;46.00;99162.72;7723864;32;38357;-85
2023/10/29 16:38:57;;;;;;;3.42;1.23;;;;;;;20.15;45.29;99175.66;7708979;32;37799;-85
2023/10/29 16:43:13;;;;;;;2.58;1.30;;;;;;;19.93;45.60;99173.41;7711718;32;39261;-87
2023/10/29 16:47:30;;;;;;;3.97;1.20;;;;;;;20.03;45.44;99176.50;7709348;32;39690;-84
2023/10/29 16:51:46;;;;;;;3.42;1.15;;;;;;;19.83;45.19;99181.06;7710092;32;38726;-84
2023/10/29 16:56:06;;;;;;;3.30;1.10;;;;;;;19.82;45.50;99182.19;7710693;32;37917;-84
2023/10/29 17:00:23;;;;;;;4.18;1.23;;;;;;;20.14;44.65;99190.63;7733124;32;40031;-84
2023/10/29 17:04:40;;;;;;;4.93;1.20;;;;;;;19.91;45.13;99182.06;7736639;32;40867;-82
2023/10/29 17:08:58;;;;;;;5.40;1.30;;;;;;;19.79;44.56;99191.19;7736311;32;38511;-85
2023/10/29 17:13:16;;;;;;;4.70;1.00;;;;;;;19.95;44.56;99199.56;7735177;32;37386;-82
2023/10/29 17:17:33;;;;;;;1.77;1.10;;;;;;;19.34;45.52;99192.13;7736493;32;41747;-83
2023/10/29 17:21:49;;;;;;;3.47;1.42;;;;;;;19.05;46.10;99184.84;7736333;32;40824;-83
2023/10/29 17:26:18;;;;;;;3.50;1.30;;;;;;;19.93;44.22;99190.00;7735783;32;38684;-84
2023/10/29 17:30:36;;;;;;;2.65;1.05;;;;;;;19.84;44.10;99177.13;7717889;32;36999;-80
2023/10/29 17:34:56;;;;;;;3.75;1.02;;;;;;;19.69;44.07;99170.31;7709216;32;39795;-80
2023/10/29 17:39:14;;;;;;;4.57;1.30;;;;;;;19.66;44.27;99190.38;7709018;32;40066;-79
2023/10/29 17:43:31;;;;;;;6.45;1.58;;;;;;;19.09;45.86;99183.00;7708498;32;37943;-79
2023/10/29 17:47:51;;;;;;;5.65;1.35;;;;;;;19.33;45.19;99176.66;7711427;32;37853;-81
2023/10/29 17:52:07;;;;;;;6.07;1.05;;;;;;;19.40;45.18;99185.19;7712770;32;39090;-80
2023/10/29 17:56:24;;;;;;;2.70;0.93;;;;;;;19.65;44.83;99191.53;7712447;32;40545;-79
2023/10/29 18:00:42;;;;;;;4.93;1.10;;;;;;;19.24;45.64;99198.09;7712318;32;35724;-80
2023/10/29 18:04:58;;;;;;;6.87;1.20;;;;;;;19.16;45.82;99190.72;7712504;32;37133;-79
2023/10/29 18:09:15;;;;;;;5.25;1.05;;;;;;;19.40;45.21;99179.66;7712592;32;40213;-80
2023/10/29 18:13:33;;;;;;;6.57;1.25;;;;;;;19.33;45.68;99191.31;7712313;32;40752;-79
2023/10/29 18:17:51;;;;;;;2.50;1.00;;;;;;;19.30;45.83;99192.00;7712382;32;36879;-80
2023/10/29 18:22:13;;;;;;;2.97;0.90;;;;;;;19.28;45.62;99197.06;7712446;32;38352;-80
2023/10/29 18:26:31;;;;;;;4.18;1.10;;;;;;;19.05;46.26;99207.72;7712316;32;38094;-79
2023/10/29 18:30:49;;;;;;;1.55;0.85;;;;;;;19.48;45.40;99202.81;7712253;32;39871;-80
2023/10/29 18:35:06;;;;;;;1.33;0.93;;;;;;;19.27;45.76;99192.69;7712182;32;37841;-79
2023/10/29 18:39:22;;;;;;;2.83;0.93;;;;;;;19.09;46.05;99210.59;7712163;32;38096;-79
2023/10/29 18:43:38;;;;;;;1.95;0.90;;;;;;;19.35;45.70;99188.22;7701350;32;39359;-78
2023/10/29 18:47:56;;;;;;;2.97;0.90;;;;;;;19.21;45.79;99209.81;7712038;32;40058;-79
2023/10/29 18:52:15;;;;;;;4.07;1.50;;;;;;;19.17;45.94;99208.91;7712106;32;37888;-81
2023/10/29 18:56:31;;;;;;;3.60;1.40;;;;;;;19.00;46.97;99185.84;7711621;32;37033;-81
2023/10/29 19:00:47;;;;;;;5.43;1.17;;;;;;;19.00;46.78;99202.44;7711979;32;39593;-81
2023/10/29 19:05:07;;;;;;;2.47;1.10;;;;;;;19.06;46.55;99201.06;7715651;32;40151;-81
2023/10/29 19:09:23;;;;;;;2.45;0.80;;;;;;;18.94;46.84;99207.38;7711392;32;37952;-81
2023/10/29 19:13:40;;;;;;;2.53;1.23;;;;;;;18.99;46.82;99184.25;7711676;32;37195;-81
2023/10/29 19:18:01;;;;;;;4.20;1.05;;;;;;;18.91;47.22;99205.28;7711919;32;39594;-81
2023/10/29 19:22:23;;;;;;;3.45;1.12;;;;;;;18.77;47.60;99213.84;7719766;32;40951;-85
2023/10/29 19:26:46;;;;;;;4.80;1.00;;;;;;;18.74;47.77;99231.09;7711025;32;38046;-84
2023/10/29 19:31:07;;;;;;;2.03;1.02;;;;;;;19.12;46.99;99212.69;7711604;32;35728;-83
2023/10/29 19:35:40;;;;;;;4.10;1.00;;;;;;;18.93;47.03;99211.28;7711834;32;39779;-80
2023/10/29 19:39:58;;;;;;;5.65;1.20;;;;;;;19.26;46.35;99201.31;7711151;32;39521;-80
2023/10/29 19:44:19;;;;;;;2.97;1.17;;;;;;;19.09;46.44;99208.69;7684445;32;37640;-82
2023/10/29 19:48:39;;;;;;;3.97;1.30;;;;;;;19.14;46.46;99211.22;7703074;32;37000;-81
2023/10/29 19:52:55;;;;;;;3.00;1.20;;;;;;;18.99;46.80;99202.75;7708754;32;40098;-81
2023/10/29 19:57:12;;;;;;;7.45;1.20;;;;;;;18.87;47.15;99195.28;7710312;32;39980;-82
2023/10/29 20:01:32;;;;;;;5.18;1.12;;;;;;;19.09;46.60;99192.09;7710138;32;37930;-81
2023/10/29 20:05:54;;;;;;;5.15;1.20;;;;;;;19.07;46.81;99197.12;7710150;32;37300;-82